createdAt,value
2023-04-27T00:01:32.662Z,6.07
2023-04-27T00:03:59.126Z,4.47
2023-04-27T00:06:26.677Z,8.47
2023-04-27T00:08:54.488Z,5.30
2023-04-27T00:11:21.535Z,4.80
2023-04-27T00:13:48.249Z,6.30
2023-04-27T00:16:14.737Z,5.53
2023-04-27T00:18:41.469Z,4.90
2023-04-27T00:21:09.242Z,5.80
2023-04-27T00:23:35.753Z,6.60
2023-04-27T00:26:02.351Z,7.30
2023-04-27T00:28:28.783Z,6.83
2023-04-27T00:30:58.448Z,5.63
2023-04-27T00:33:26.815Z,6.40
2023-04-27T00:35:53.265Z,4.80
2023-04-27T00:38:20.619Z,4.87
2023-04-27T00:40:46.782Z,7.87
2023-04-27T00:43:14.353Z,4.30
2023-04-27T00:45:43.152Z,8.60
2023-04-27T00:48:11.521Z,5.57
2023-04-27T00:50:38.894Z,5.00
2023-04-27T00:53:07.088Z,5.30
2023-04-27T00:55:33.486Z,5.57
2023-04-27T00:58:01.649Z,6.57
2023-04-27T01:00:28.195Z,8.93
2023-04-27T01:02:55.240Z,5.23
2023-04-27T01:05:23.684Z,7.87
2023-04-27T01:07:50.036Z,7.77
2023-04-27T01:10:16.498Z,5.03
2023-04-27T01:12:42.732Z,5.63
2023-04-27T01:15:10.501Z,5.67
2023-04-27T01:17:36.691Z,6.67
2023-04-27T01:20:06.775Z,5.43
2023-04-27T01:22:33.116Z,6.27
2023-04-27T01:24:59.546Z,7.70
2023-04-27T01:27:25.998Z,8.73
2023-04-27T01:29:52.505Z,6.20
2023-04-27T01:32:18.663Z,8.83
2023-04-27T01:34:45.070Z,7.33
2023-04-27T01:37:11.585Z,8.83
2023-04-27T01:39:38.053Z,7.40
2023-04-27T01:42:04.387Z,6.77
2023-04-27T01:44:31.113Z,6.53
2023-04-27T01:47:00.407Z,6.90
2023-04-27T01:49:27.229Z,8.03
2023-04-27T01:51:55.952Z,5.83
2023-04-27T01:54:22.417Z,6.53
2023-04-27T01:56:48.696Z,7.47
2023-04-27T01:59:16.014Z,6.13
2023-04-27T02:01:42.623Z,6.07
2023-04-27T02:04:09.087Z,6.03
2023-04-27T02:06:35.578Z,6.30
2023-04-27T02:09:01.883Z,6.70
2023-04-27T02:11:28.087Z,7.57
2023-04-27T02:13:54.278Z,8.33
2023-04-27T02:16:30.364Z,5.97
2023-04-27T02:18:56.834Z,6.50
2023-04-27T02:21:23.351Z,8.77
2023-04-27T02:23:50.166Z,6.33
2023-04-27T02:26:19.616Z,5.03
2023-04-27T02:28:49.386Z,6.17
2023-04-27T02:31:15.960Z,6.63
2023-04-27T02:33:42.123Z,6.37
2023-04-27T02:36:08.793Z,5.67
2023-04-27T02:38:35.217Z,7.20
2023-04-27T02:41:02.872Z,7.77
2023-04-27T02:43:29.100Z,6.70
2023-04-27T02:45:55.534Z,4.73
2023-04-27T02:48:21.690Z,8.80
2023-04-27T02:50:47.944Z,6.17
2023-04-27T02:53:14.920Z,11.53
2023-04-27T02:55:48.596Z,6.40
2023-04-27T02:58:16.155Z,6.60
2023-04-27T03:00:43.149Z,5.87
2023-04-27T03:03:09.610Z,6.83
2023-04-27T03:05:36.576Z,6.67
2023-04-27T03:08:03.018Z,9.70
2023-04-27T03:10:29.373Z,9.47
2023-04-27T03:12:55.604Z,8.87
2023-04-27T03:15:22.030Z,7.90
2023-04-27T03:17:48.467Z,13.03
2023-04-27T03:20:14.695Z,8.20
2023-04-27T03:22:41.154Z,9.23
2023-04-27T03:25:07.850Z,6.20
2023-04-27T03:27:33.987Z,7.43
2023-04-27T03:30:00.191Z,7.17
2023-04-27T03:32:26.391Z,7.87
2023-04-27T03:34:53.635Z,7.60
2023-04-27T03:37:19.801Z,7.27
2023-04-27T03:39:46.195Z,9.80
2023-04-27T03:42:12.657Z,7.67
2023-04-27T03:44:39.732Z,9.20
2023-04-27T03:47:08.469Z,6.60
2023-04-27T03:49:35.852Z,8.60
2023-04-27T03:52:02.800Z,7.60
2023-04-27T03:54:31.246Z,7.23
2023-04-27T03:56:57.525Z,9.33
2023-04-27T03:59:23.725Z,7.37
2023-04-27T04:01:50.045Z,7.00
2023-04-27T04:04:16.759Z,10.40
2023-04-27T04:06:43.106Z,6.83
2023-04-27T04:09:12.257Z,12.97
2023-04-27T04:11:39.725Z,6.57
2023-04-27T04:14:07.535Z,10.63
2023-04-27T04:16:34.115Z,8.33
2023-04-27T04:19:00.329Z,16.30
2023-04-27T04:21:26.573Z,7.40
2023-04-27T04:23:52.999Z,7.30
2023-04-27T04:26:19.956Z,11.13
2023-04-27T04:28:46.132Z,10.47
2023-04-27T04:31:13.389Z,9.63
2023-04-27T04:33:39.905Z,8.67
2023-04-27T04:36:06.970Z,8.93
2023-04-27T04:38:33.560Z,7.50
2023-04-27T04:41:00.399Z,12.10
2023-04-27T04:43:26.672Z,9.93
2023-04-27T04:45:55.894Z,8.17
2023-04-27T04:48:22.103Z,8.00
2023-04-27T04:50:48.333Z,11.03
2023-04-27T04:53:14.858Z,8.87
2023-04-27T04:55:42.109Z,10.50
2023-04-27T04:58:09.430Z,9.67
2023-04-27T05:00:36.150Z,9.30
2023-04-27T05:03:02.837Z,8.93
2023-04-27T05:05:29.094Z,12.20
2023-04-27T05:07:55.477Z,8.97
2023-04-27T05:10:21.931Z,8.30
2023-04-27T05:12:48.371Z,9.40
2023-04-27T05:15:15.249Z,9.83
2023-04-27T05:17:41.492Z,9.93
2023-04-27T05:20:09.020Z,10.13
2023-04-27T05:22:35.866Z,10.63
2023-04-27T05:25:02.980Z,10.20
2023-04-27T05:27:29.322Z,9.97
2023-04-27T05:29:55.493Z,9.07
2023-04-27T05:32:21.654Z,10.23
2023-04-27T05:34:49.600Z,10.10
2023-04-27T05:37:15.957Z,13.10
2023-04-27T05:39:42.241Z,10.37
2023-04-27T05:42:08.475Z,9.87
2023-04-27T05:44:34.920Z,13.40
2023-04-27T05:47:01.382Z,8.57
2023-04-27T05:49:27.600Z,10.73
2023-04-27T05:51:54.030Z,9.80
2023-04-27T05:54:20.462Z,15.63
2023-04-27T05:56:46.949Z,10.40
2023-04-27T05:59:13.226Z,12.97
2023-04-27T06:01:39.842Z,12.73
2023-04-27T06:04:06.398Z,11.97
2023-04-27T06:06:34.857Z,12.80
2023-04-27T06:09:01.609Z,11.13
2023-04-27T06:11:27.849Z,11.43
2023-04-27T06:13:54.005Z,11.47
2023-04-27T06:16:20.899Z,12.03
2023-04-27T06:18:48.913Z,15.10
2023-04-27T06:21:15.391Z,15.37
2023-04-27T06:23:41.527Z,11.63
2023-04-27T06:26:07.662Z,14.27
2023-04-27T06:28:33.808Z,12.50
2023-04-27T06:31:00.828Z,16.50
2023-04-27T06:33:27.066Z,12.67
2023-04-27T06:35:53.217Z,12.03
2023-04-27T06:38:19.375Z,14.13
2023-04-27T06:40:51.402Z,13.63
2023-04-27T06:43:17.830Z,12.87
2023-04-27T06:45:44.036Z,12.50
2023-04-27T06:48:10.303Z,12.33
2023-04-27T06:50:36.482Z,13.50
2023-04-27T06:53:02.652Z,11.70
2023-04-27T06:55:29.031Z,11.00
2023-04-27T06:57:55.265Z,11.80
2023-04-27T07:00:21.476Z,9.77
2023-04-27T07:02:47.957Z,12.53
2023-04-27T07:05:14.185Z,13.13
2023-04-27T07:07:40.751Z,13.70
2023-04-27T07:10:08.378Z,12.87
2023-04-27T07:12:35.131Z,13.30
2023-04-27T07:15:03.624Z,13.57
2023-04-27T07:17:30.252Z,12.93
2023-04-27T07:19:56.425Z,13.57
2023-04-27T07:22:25.413Z,13.93
2023-04-27T07:24:51.676Z,10.17
2023-04-27T07:27:18.222Z,16.10
2023-04-27T07:29:44.667Z,8.70
2023-04-27T07:32:11.029Z,11.70
2023-04-27T07:34:51.787Z,11.97
2023-04-27T07:37:19.802Z,12.23
2023-04-27T07:39:46.639Z,13.23
2023-04-27T07:42:13.227Z,11.47
2023-04-27T07:44:40.079Z,10.30
2023-04-27T07:47:06.239Z,9.63
2023-04-27T07:49:33.565Z,11.80
2023-04-27T07:52:00.017Z,9.13
2023-04-27T07:54:26.879Z,10.23
2023-04-27T07:56:53.919Z,12.77
2023-04-27T07:59:20.279Z,10.57
2023-04-27T08:01:46.664Z,11.00
2023-04-27T08:04:13.551Z,11.10
2023-04-27T08:06:40.526Z,11.33
2023-04-27T08:09:07.559Z,12.67
2023-04-27T08:11:33.704Z,9.47
2023-04-27T08:13:59.873Z,10.30
2023-04-27T08:16:27.078Z,11.23
2023-04-27T08:18:53.527Z,12.03
2023-04-27T08:21:19.901Z,11.17
2023-04-27T08:23:46.539Z,13.43
2023-04-27T08:26:16.148Z,12.07
2023-04-27T08:28:44.903Z,12.20
2023-04-27T08:31:11.211Z,9.97
2023-04-27T08:33:40.124Z,11.83
2023-04-27T08:36:07.067Z,12.73
2023-04-27T08:38:34.631Z,12.57
2023-04-27T08:41:10.921Z,11.50
2023-04-27T08:43:45.197Z,10.43
2023-04-27T08:46:11.466Z,9.97
2023-04-27T08:48:37.684Z,10.83
2023-04-27T08:51:10.480Z,13.27
2023-04-27T08:53:36.911Z,11.03
2023-04-27T08:56:04.761Z,11.07
2023-04-27T08:58:38.542Z,10.60
2023-04-27T09:01:09.195Z,10.47
2023-04-27T09:03:36.511Z,10.73
2023-04-27T09:06:06.278Z,10.03
2023-04-27T09:08:49.809Z,11.27
2023-04-27T09:11:36.142Z,10.20
2023-04-27T09:14:19.211Z,11.03
2023-04-27T09:16:45.748Z,11.23
2023-04-27T09:19:23.688Z,12.97
2023-04-27T09:21:50.910Z,10.53
2023-04-27T09:24:17.723Z,12.97
2023-04-27T09:26:49.391Z,11.17
2023-04-27T09:29:15.701Z,10.53
2023-04-27T09:31:42.350Z,11.47
2023-04-27T09:34:08.519Z,10.43
2023-04-27T09:36:34.709Z,12.27
2023-04-27T09:39:04.523Z,9.93
2023-04-27T09:41:34.809Z,10.53
2023-04-27T09:44:02.698Z,9.90
2023-04-27T09:46:32.470Z,12.47
2023-04-27T09:49:03.699Z,12.07
2023-04-27T09:51:31.365Z,10.03
2023-04-27T09:54:02.844Z,12.60
2023-04-27T09:57:01.735Z,10.77
2023-04-27T09:59:45.612Z,11.17
2023-04-27T10:02:24.873Z,12.47
2023-04-27T10:05:45.714Z,8.70
2023-04-27T10:08:12.675Z,10.30
2023-04-27T10:10:47.290Z,11.53
2023-04-27T10:13:22.694Z,11.63
2023-04-27T10:15:49.711Z,9.27
2023-04-27T10:18:28.309Z,11.37
2023-04-27T10:20:54.637Z,10.33
2023-04-27T10:23:25.989Z,11.27
2023-04-27T10:25:54.285Z,8.87
2023-04-27T10:28:20.646Z,10.23
2023-04-27T10:30:48.617Z,8.77
2023-04-27T10:33:21.154Z,10.33
2023-04-27T10:36:00.317Z,11.13
2023-04-27T10:38:30.900Z,13.27
2023-04-27T10:41:01.369Z,9.10
2023-04-27T10:43:31.178Z,11.03
2023-04-27T10:46:12.835Z,8.07
2023-04-27T10:48:41.122Z,7.30
2023-04-27T10:51:10.345Z,9.57
2023-04-27T10:53:37.833Z,9.33
2023-04-27T10:56:06.313Z,9.93
2023-04-27T10:58:47.560Z,9.47
2023-04-27T11:01:26.520Z,9.77
2023-04-27T11:03:58.031Z,13.07
2023-04-27T11:06:24.387Z,10.80
2023-04-27T11:08:51.225Z,10.17
2023-04-27T11:11:19.901Z,8.27
2023-04-27T11:13:48.997Z,8.10
2023-04-27T11:16:16.035Z,9.13
2023-04-27T11:18:42.355Z,10.83
2023-04-27T11:21:13.569Z,9.57
2023-04-27T11:23:40.601Z,7.47
2023-04-27T11:26:15.245Z,7.23
2023-04-27T11:28:43.384Z,10.43
2023-04-27T11:31:10.822Z,8.70
2023-04-27T11:33:39.099Z,7.17
2023-04-27T11:36:20.727Z,10.83
2023-04-27T11:38:47.204Z,10.10
2023-04-27T11:41:13.514Z,8.23
2023-04-27T11:43:48.478Z,8.13
2023-04-27T11:46:15.490Z,8.60
2023-04-27T11:48:44.524Z,9.90
2023-04-27T11:51:12.118Z,6.97
2023-04-27T11:53:39.719Z,8.23
2023-04-27T11:56:09.939Z,7.70
2023-04-27T11:58:39.025Z,7.10
2023-04-27T12:01:09.497Z,8.13
2023-04-27T12:03:36.209Z,9.47
2023-04-27T12:08:31.848Z,8.30
2023-04-27T12:10:58.261Z,9.73
2023-04-27T12:13:24.431Z,9.40
2023-04-27T12:15:50.683Z,8.07
2023-04-27T12:18:17.134Z,9.47
2023-04-27T12:20:43.304Z,8.40
2023-04-27T12:23:09.864Z,7.23
2023-04-27T12:25:36.550Z,7.67
2023-04-27T12:28:02.840Z,6.10
2023-04-27T12:30:29.281Z,9.80
2023-04-27T12:32:56.170Z,9.63
2023-04-27T12:35:22.646Z,6.10
2023-04-27T12:37:49.320Z,10.30
2023-04-27T12:40:15.564Z,7.73
2023-04-27T12:42:41.795Z,9.27
2023-04-27T12:45:08.805Z,9.37
2023-04-27T12:47:54.053Z,5.93
2023-04-27T12:50:21.132Z,7.10
2023-04-27T12:52:47.593Z,6.30
2023-04-27T12:55:25.119Z,6.53
2023-04-27T12:57:58.127Z,6.83
2023-04-27T13:00:24.695Z,9.17
2023-04-27T13:02:52.347Z,8.77
2023-04-27T13:05:19.021Z,8.23
2023-04-27T13:07:45.187Z,7.87
2023-04-27T13:10:11.552Z,5.70
2023-04-27T13:12:37.896Z,8.33
2023-04-27T13:15:04.708Z,6.37
2023-04-27T13:17:31.156Z,6.80
2023-04-27T13:19:57.647Z,10.57
2023-04-27T13:22:23.829Z,10.07
2023-04-27T13:24:50.023Z,5.50
2023-04-27T13:27:16.477Z,5.40
2023-04-27T13:29:42.931Z,5.10
2023-04-27T13:32:09.105Z,5.13
2023-04-27T13:34:35.547Z,6.73
2023-04-27T13:37:02.078Z,5.97
2023-04-27T13:39:28.258Z,6.60
2023-04-27T13:41:54.460Z,6.13
2023-04-27T13:44:20.617Z,6.23
2023-04-27T13:46:46.885Z,6.50
2023-04-27T13:49:13.090Z,5.93
2023-04-27T13:51:39.820Z,4.43
2023-04-27T13:54:05.962Z,5.50
2023-04-27T13:56:32.388Z,4.63
2023-04-27T13:58:59.374Z,6.60
2023-04-27T14:01:26.326Z,6.70
2023-04-27T14:03:52.689Z,8.07
2023-04-27T14:06:19.348Z,6.67
2023-04-27T14:08:45.493Z,4.87
2023-04-27T14:11:12.579Z,6.93
2023-04-27T14:13:38.766Z,9.33
2023-04-27T14:16:06.096Z,8.67
2023-04-27T14:18:33.024Z,5.37
2023-04-27T14:21:00.227Z,6.83
2023-04-27T14:23:26.497Z,4.93
2023-04-27T14:25:54.069Z,4.30
2023-04-27T14:28:20.717Z,6.90
2023-04-27T14:30:47.079Z,5.20
2023-04-27T14:33:13.281Z,5.80
2023-04-27T14:35:39.813Z,5.00
2023-04-27T14:38:06.241Z,9.17
2023-04-27T14:40:34.649Z,6.57
2023-04-27T14:43:00.835Z,4.17
2023-04-27T14:45:36.521Z,6.30
2023-04-27T14:48:06.666Z,3.90
2023-04-27T14:50:32.866Z,4.57
2023-04-27T14:52:59.089Z,4.57
2023-04-27T14:55:25.925Z,3.67
2023-04-27T14:57:52.243Z,5.50
2023-04-27T15:00:18.829Z,4.23
2023-04-27T15:02:45.442Z,4.77
2023-04-27T15:05:11.705Z,4.77
2023-04-27T15:07:37.859Z,4.80
2023-04-27T15:10:05.225Z,4.73
2023-04-27T15:12:31.517Z,7.37
2023-04-27T15:14:57.748Z,7.47
2023-04-27T15:17:24.164Z,5.43
2023-04-27T15:19:51.022Z,5.37
2023-04-27T15:22:17.270Z,4.73
2023-04-27T15:24:43.515Z,5.37
2023-04-27T15:27:10.004Z,3.73
2023-04-27T15:29:37.117Z,7.40
2023-04-27T15:32:03.667Z,4.93
2023-04-27T15:34:30.382Z,5.80
2023-04-27T15:36:56.957Z,6.20
2023-04-27T15:39:23.370Z,6.07
2023-04-27T15:41:49.664Z,5.97
2023-04-27T15:44:15.833Z,4.93
2023-04-27T15:46:42.029Z,6.57
2023-04-27T15:49:08.366Z,5.80
2023-04-27T15:51:34.516Z,4.50
2023-04-27T15:54:00.999Z,7.03
2023-04-27T15:56:29.935Z,5.87
2023-04-27T15:58:57.118Z,4.33
2023-04-27T16:01:23.341Z,4.20
2023-04-27T16:03:49.775Z,5.10
2023-04-27T16:06:16.658Z,6.97
2023-04-27T16:08:42.908Z,5.10
2023-04-27T16:11:09.138Z,3.67
2023-04-27T16:13:35.575Z,5.27
2023-04-27T16:16:01.862Z,5.13
2023-04-27T16:18:28.177Z,4.60
2023-04-27T16:20:54.359Z,3.83
2023-04-27T16:23:20.548Z,4.80
2023-04-27T16:25:46.705Z,4.57
2023-04-27T16:28:12.954Z,5.17
2023-04-27T16:30:39.558Z,5.27
2023-04-27T16:33:05.831Z,3.57
2023-04-27T16:35:33.280Z,5.03
2023-04-27T16:37:59.888Z,4.93
2023-04-27T16:40:26.947Z,4.47
2023-04-27T16:42:53.106Z,5.20
2023-04-27T16:45:19.337Z,6.33
2023-04-27T16:47:45.648Z,7.10
2023-04-27T16:50:11.837Z,4.10
2023-04-27T16:52:38.178Z,5.30
2023-04-27T16:55:05.376Z,4.40
2023-04-27T16:57:31.529Z,4.17
2023-04-27T16:59:59.197Z,5.90
2023-04-27T17:02:26.010Z,6.07
2023-04-27T17:04:53.979Z,6.20
2023-04-27T17:07:20.548Z,4.00
2023-04-27T17:09:46.971Z,7.20
2023-04-27T17:12:13.978Z,4.47
2023-04-27T17:14:40.482Z,7.90
2023-04-27T17:17:06.770Z,5.70
2023-04-27T17:19:33.005Z,5.33
2023-04-27T17:21:59.272Z,4.27
2023-04-27T17:24:25.559Z,4.27
2023-04-27T17:26:51.717Z,4.40
2023-04-27T17:29:17.949Z,5.60
2023-04-27T17:31:44.209Z,5.60
2023-04-27T17:34:11.184Z,6.33
2023-04-27T17:36:37.773Z,10.23
2023-04-27T17:39:04.110Z,9.80
2023-04-27T17:41:31.981Z,5.90
2023-04-27T17:43:58.714Z,6.70
2023-04-27T17:46:25.377Z,4.03
2023-04-27T17:48:52.520Z,4.17
2023-04-27T17:51:18.996Z,3.87
2023-04-27T17:53:45.538Z,6.67
2023-04-27T17:56:11.703Z,5.53
2023-04-27T17:58:37.968Z,6.43
2023-04-27T18:01:08.213Z,6.23
2023-04-27T18:03:34.598Z,9.30
2023-04-27T18:06:00.876Z,6.60
2023-04-27T18:08:27.347Z,7.93
2023-04-27T18:10:53.737Z,6.27
2023-04-27T18:13:20.119Z,8.17
2023-04-27T18:15:46.322Z,7.80
2023-04-27T18:18:16.063Z,6.33
2023-04-27T18:20:44.081Z,6.33
2023-04-27T18:23:10.555Z,5.60
2023-04-27T18:25:36.749Z,6.33
2023-04-27T18:28:05.940Z,9.37
2023-04-27T18:30:32.856Z,7.90
2023-04-27T18:32:59.417Z,7.60
2023-04-27T18:35:25.643Z,6.60
2023-04-27T18:37:51.807Z,6.73
2023-04-27T18:40:21.271Z,6.70
2023-04-27T18:42:47.994Z,12.67
2023-04-27T18:45:15.111Z,6.93
2023-04-27T18:47:41.648Z,7.20
2023-04-27T18:50:08.315Z,8.97
2023-04-27T18:52:34.759Z,8.03
2023-04-27T18:55:01.159Z,7.13
2023-04-27T18:57:27.853Z,10.07
2023-04-27T18:59:54.300Z,7.60
2023-04-27T19:02:20.651Z,6.57
2023-04-27T19:04:53.139Z,10.10
2023-04-27T19:07:28.158Z,6.23
2023-04-27T19:09:54.497Z,9.33
2023-04-27T19:12:22.159Z,6.83
2023-04-27T19:14:48.575Z,7.30
2023-04-27T19:17:14.817Z,8.80
2023-04-27T19:19:41.351Z,6.47
2023-04-27T19:22:07.920Z,7.77
2023-04-27T19:24:34.278Z,11.20
2023-04-27T19:27:01.273Z,8.43
2023-04-27T19:29:27.684Z,5.63
2023-04-27T19:31:54.534Z,5.17
2023-04-27T19:34:20.893Z,6.87
2023-04-27T19:36:49.139Z,6.20
2023-04-27T19:39:18.342Z,5.13
2023-04-27T19:41:44.471Z,4.67
2023-04-27T19:44:10.691Z,6.13
2023-04-27T19:46:36.869Z,6.47
2023-04-27T19:49:03.098Z,5.90
2023-04-27T19:51:29.257Z,6.87
2023-04-27T19:53:55.450Z,5.33
2023-04-27T19:56:21.589Z,7.60
2023-04-27T19:58:48.082Z,8.63
2023-04-27T20:01:14.321Z,5.80
2023-04-27T20:03:40.636Z,6.90
2023-04-27T20:06:07.962Z,5.37
2023-04-27T20:08:34.449Z,4.97
2023-04-27T20:11:00.938Z,6.03
2023-04-27T20:13:27.182Z,7.73
2023-04-27T20:15:53.484Z,6.20
2023-04-27T20:18:19.769Z,9.07
2023-04-27T20:20:46.211Z,5.07
2023-04-27T20:23:12.762Z,5.07
2023-04-27T20:25:39.196Z,6.07
2023-04-27T20:28:05.623Z,5.40
2023-04-27T20:30:32.095Z,5.37
2023-04-27T20:32:58.565Z,5.13
2023-04-27T20:35:25.029Z,5.00
2023-04-27T20:37:51.299Z,5.83
2023-04-27T20:40:18.263Z,5.20
2023-04-27T20:42:45.175Z,5.70
2023-04-27T20:45:11.420Z,5.07
2023-04-27T20:47:37.857Z,4.20
2023-04-27T20:50:05.519Z,4.10
2023-04-27T20:52:34.000Z,6.37
2023-04-27T20:55:05.733Z,5.77
2023-04-27T20:57:32.410Z,6.10
2023-04-27T20:59:58.624Z,4.03
2023-04-27T21:02:24.942Z,4.17
2023-04-27T21:04:51.733Z,3.97
2023-04-27T21:07:17.997Z,4.23
2023-04-27T21:09:44.324Z,5.77
2023-04-27T21:12:11.069Z,6.10
2023-04-27T21:14:37.336Z,4.53
2023-04-27T21:17:03.749Z,6.93
2023-04-27T21:19:30.046Z,3.87
2023-04-27T21:21:56.324Z,4.00
2023-04-27T21:24:22.870Z,4.30
2023-04-27T21:26:49.191Z,3.93
2023-04-27T21:29:15.680Z,3.53
2023-04-27T21:31:41.863Z,4.20
2023-04-27T21:34:10.799Z,4.63
2023-04-27T21:36:37.147Z,4.70
2023-04-27T21:39:03.490Z,7.07
2023-04-27T21:41:29.979Z,4.23
2023-04-27T21:43:56.142Z,4.97
2023-04-27T21:46:23.219Z,6.60
2023-04-27T21:48:49.448Z,5.50
2023-04-27T21:51:15.590Z,5.13
2023-04-27T21:53:44.602Z,7.60
2023-04-27T21:56:10.793Z,4.70
2023-04-27T21:58:37.278Z,7.57
2023-04-27T22:01:03.643Z,4.33
2023-04-27T22:03:30.083Z,5.93
2023-04-27T22:05:58.832Z,3.40
2023-04-27T22:08:25.266Z,4.27
2023-04-27T22:10:51.667Z,7.50
2023-04-27T22:13:19.271Z,5.00
2023-04-27T22:15:47.099Z,5.60
2023-04-27T22:18:14.832Z,7.10
2023-04-27T22:20:42.136Z,7.07
2023-04-27T22:23:08.768Z,7.43
2023-04-27T22:25:35.526Z,6.30
2023-04-27T22:28:02.001Z,7.00
2023-04-27T22:30:28.704Z,9.90
2023-04-27T22:32:56.045Z,8.77
2023-04-27T22:35:27.006Z,6.13
2023-04-27T22:37:58.488Z,6.97
2023-04-27T22:40:24.759Z,5.70
2023-04-27T22:42:52.770Z,9.30
2023-04-27T22:45:18.941Z,10.43
2023-04-27T22:47:46.324Z,6.20
2023-04-27T22:50:12.939Z,7.40
2023-04-27T22:52:43.195Z,10.27
2023-04-27T22:55:11.217Z,6.93
2023-04-27T22:57:39.092Z,7.17
2023-04-27T23:00:08.112Z,5.83
2023-04-27T23:02:34.632Z,7.10
2023-04-27T23:05:01.163Z,4.90
2023-04-27T23:07:28.031Z,6.73
2023-04-27T23:09:54.192Z,7.80
2023-04-27T23:12:21.298Z,6.47
2023-04-27T23:14:47.541Z,6.57
2023-04-27T23:17:14.599Z,10.13
2023-04-27T23:19:41.020Z,7.87
2023-04-27T23:22:07.279Z,6.40
2023-04-27T23:24:33.498Z,6.83
2023-04-27T23:27:00.671Z,11.43
2023-04-27T23:29:27.171Z,6.80
2023-04-27T23:31:53.327Z,7.00
2023-04-27T23:34:19.487Z,9.73
2023-04-27T23:36:45.755Z,6.27
2023-04-27T23:39:11.949Z,5.37
2023-04-27T23:41:38.158Z,5.93
2023-04-27T23:44:04.723Z,6.90
2023-04-27T23:46:30.962Z,6.47
2023-04-27T23:48:57.248Z,6.27
2023-04-27T23:51:23.631Z,8.77
2023-04-27T23:53:49.790Z,5.80
2023-04-27T23:56:19.892Z,9.00
2023-04-27T23:58:46.062Z,6.23
